sensor_id;sensor_type;location;lat;lon;timestamp;P1;durP1;ratioP1;P2;durP2;ratioP2
5827;SDS011;42583;50.240;8.444;2022-12-18T00:00:33;3.47;;;1.67;;
5827;SDS011;42583;50.240;8.444;2022-12-18T00:15:34;3.73;;;1.73;;
5827;SDS011;42583;50.240;8.444;2022-12-18T00:30:35;2.33;;;1.40;;
5827;SDS011;42583;50.240;8.444;2022-12-18T00:45:35;2.23;;;1.50;;
5827;SDS011;42583;50.240;8.444;2022-12-18T01:00:36;1.93;;;1.23;;
5827;SDS011;42583;50.240;8.444;2022-12-18T01:15:37;3.70;;;1.60;;
5827;SDS011;42583;50.240;8.444;2022-12-18T01:30:38;6.17;;;2.10;;
5827;SDS011;42583;50.240;8.444;2022-12-18T01:45:39;6.23;;;1.83;;
5827;SDS011;42583;50.240;8.444;2022-12-18T02:00:40;4.43;;;2.00;;
5827;SDS011;42583;50.240;8.444;2022-12-18T02:16:27;4.97;;;2.50;;
5827;SDS011;42583;50.240;8.444;2022-12-18T02:31:22;6.23;;;2.40;;
5827;SDS011;42583;50.240;8.444;2022-12-18T02:46:33;8.23;;;3.27;;
5827;SDS011;42583;50.240;8.444;2022-12-18T03:16:50;9.10;;;3.33;;
5827;SDS011;42583;50.240;8.444;2022-12-18T03:31:55;6.93;;;2.80;;
5827;SDS011;42583;50.240;8.444;2022-12-18T03:47:05;6.43;;;2.70;;
5827;SDS011;42583;50.240;8.444;2022-12-18T04:02:14;6.23;;;2.50;;
5827;SDS011;42583;50.240;8.444;2022-12-18T04:17:17;7.30;;;3.20;;
5827;SDS011;42583;50.240;8.444;2022-12-18T04:32:17;7.33;;;3.10;;
5827;SDS011;42583;50.240;8.444;2022-12-18T04:47:18;7.60;;;3.40;;
5827;SDS011;42583;50.240;8.444;2022-12-18T05:02:18;7.77;;;3.40;;
5827;SDS011;42583;50.240;8.444;2022-12-18T05:17:19;8.30;;;3.10;;
5827;SDS011;42583;50.240;8.444;2022-12-18T05:32:19;5.27;;;2.50;;
5827;SDS011;42583;50.240;8.444;2022-12-18T05:47:20;4.63;;;2.40;;
5827;SDS011;42583;50.240;8.444;2022-12-18T06:02:20;5.93;;;2.80;;
5827;SDS011;42583;50.240;8.444;2022-12-18T06:17:21;3.83;;;2.00;;
5827;SDS011;42583;50.240;8.444;2022-12-18T06:32:22;5.43;;;2.47;;
5827;SDS011;42583;50.240;8.444;2022-12-18T06:47:22;3.83;;;2.30;;
5827;SDS011;42583;50.240;8.444;2022-12-18T07:02:23;3.77;;;1.87;;
5827;SDS011;42583;50.240;8.444;2022-12-18T07:17:24;2.63;;;1.80;;
5827;SDS011;42583;50.240;8.444;2022-12-18T07:32:24;1.97;;;1.60;;
5827;SDS011;42583;50.240;8.444;2022-12-18T07:47:25;2.93;;;1.73;;
5827;SDS011;42583;50.240;8.444;2022-12-18T08:02:26;4.40;;;2.40;;
5827;SDS011;42583;50.240;8.444;2022-12-18T08:17:26;5.00;;;2.47;;
5827;SDS011;42583;50.240;8.444;2022-12-18T08:32:27;8.17;;;3.70;;
5827;SDS011;42583;50.240;8.444;2022-12-18T08:47:28;8.20;;;4.03;;
5827;SDS011;42583;50.240;8.444;2022-12-18T09:02:28;8.67;;;3.90;;
5827;SDS011;42583;50.240;8.444;2022-12-18T09:17:29;9.60;;;4.17;;
5827;SDS011;42583;50.240;8.444;2022-12-18T09:32:29;6.00;;;3.30;;
5827;SDS011;42583;50.240;8.444;2022-12-18T09:47:30;6.25;;;2.78;;
5827;SDS011;42583;50.240;8.444;2022-12-18T10:02:36;4.95;;;2.53;;
5827;SDS011;42583;50.240;8.444;2022-12-18T10:17:40;5.40;;;2.83;;
5827;SDS011;42583;50.240;8.444;2022-12-18T10:32:51;4.40;;;2.40;;
5827;SDS011;42583;50.240;8.444;2022-12-18T10:47:52;2.85;;;1.73;;
5827;SDS011;42583;50.240;8.444;2022-12-18T11:02:53;5.55;;;2.40;;
5827;SDS011;42583;50.240;8.444;2022-12-18T11:17:54;16.35;;;7.38;;
5827;SDS011;42583;50.240;8.444;2022-12-18T11:48:05;20.20;;;8.50;;
5827;SDS011;42583;50.240;8.444;2022-12-18T12:03:14;9.15;;;3.67;;
5827;SDS011;42583;50.240;8.444;2022-12-18T12:18:47;18.90;;;8.20;;
5827;SDS011;42583;50.240;8.444;2022-12-18T12:49:54;22.08;;;9.52;;
5827;SDS011;42583;50.240;8.444;2022-12-18T13:05:04;28.30;;;11.00;;
5827;SDS011;42583;50.240;8.444;2022-12-18T13:20:24;23.80;;;9.18;;
5827;SDS011;42583;50.240;8.444;2022-12-18T13:50:38;18.43;;;6.60;;
5827;SDS011;42583;50.240;8.444;2022-12-18T14:05:39;19.80;;;6.10;;
5827;SDS011;42583;50.240;8.444;2022-12-18T14:20:41;28.40;;;12.70;;
5827;SDS011;42583;50.240;8.444;2022-12-18T14:36:03;23.27;;;7.97;;
5827;SDS011;42583;50.240;8.444;2022-12-18T14:51:06;15.70;;;5.80;;
5827;SDS011;42583;50.240;8.444;2022-12-18T15:06:17;21.80;;;7.37;;
5827;SDS011;42583;50.240;8.444;2022-12-18T15:21:39;14.97;;;5.90;;
5827;SDS011;42583;50.240;8.444;2022-12-18T15:36:43;17.60;;;6.33;;
5827;SDS011;42583;50.240;8.444;2022-12-18T15:51:44;15.90;;;5.63;;
5827;SDS011;42583;50.240;8.444;2022-12-18T16:06:49;21.13;;;8.13;;
5827;SDS011;42583;50.240;8.444;2022-12-18T16:21:50;10.17;;;4.60;;
5827;SDS011;42583;50.240;8.444;2022-12-18T16:36:52;11.90;;;4.55;;
5827;SDS011;42583;50.240;8.444;2022-12-18T16:51:54;13.05;;;5.03;;
5827;SDS011;42583;50.240;8.444;2022-12-18T17:06:55;13.63;;;4.90;;
5827;SDS011;42583;50.240;8.444;2022-12-18T17:21:56;15.82;;;6.20;;
5827;SDS011;42583;50.240;8.444;2022-12-18T17:36:56;11.45;;;4.70;;
5827;SDS011;42583;50.240;8.444;2022-12-18T17:51:57;13.48;;;5.47;;
5827;SDS011;42583;50.240;8.444;2022-12-18T18:06:57;13.43;;;6.07;;
5827;SDS011;42583;50.240;8.444;2022-12-18T18:21:58;18.40;;;6.72;;
5827;SDS011;42583;50.240;8.444;2022-12-18T18:36:59;13.82;;;5.82;;
5827;SDS011;42583;50.240;8.444;2022-12-18T18:52:00;14.00;;;6.10;;
5827;SDS011;42583;50.240;8.444;2022-12-18T19:07:01;15.02;;;6.22;;
5827;SDS011;42583;50.240;8.444;2022-12-18T19:22:03;16.88;;;6.43;;
5827;SDS011;42583;50.240;8.444;2022-12-18T19:37:06;12.05;;;5.32;;
5827;SDS011;42583;50.240;8.444;2022-12-18T19:52:07;14.27;;;6.03;;
5827;SDS011;42583;50.240;8.444;2022-12-18T20:07:07;16.70;;;5.93;;
5827;SDS011;42583;50.240;8.444;2022-12-18T20:22:08;14.40;;;5.35;;
5827;SDS011;42583;50.240;8.444;2022-12-18T20:37:08;13.95;;;6.40;;
5827;SDS011;42583;50.240;8.444;2022-12-18T20:52:09;12.77;;;5.10;;
5827;SDS011;42583;50.240;8.444;2022-12-18T21:07:09;10.85;;;4.28;;
5827;SDS011;42583;50.240;8.444;2022-12-18T21:22:10;14.50;;;6.27;;
5827;SDS011;42583;50.240;8.444;2022-12-18T21:37:10;13.38;;;5.00;;
5827;SDS011;42583;50.240;8.444;2022-12-18T21:52:11;13.98;;;5.40;;
5827;SDS011;42583;50.240;8.444;2022-12-18T22:07:12;12.57;;;5.13;;
5827;SDS011;42583;50.240;8.444;2022-12-18T22:22:14;12.10;;;4.65;;
5827;SDS011;42583;50.240;8.444;2022-12-18T22:37:15;8.75;;;3.90;;
5827;SDS011;42583;50.240;8.444;2022-12-18T22:52:15;10.50;;;4.70;;
5827;SDS011;42583;50.240;8.444;2022-12-18T23:07:16;11.75;;;4.93;;
5827;SDS011;42583;50.240;8.444;2022-12-18T23:22:17;13.95;;;4.53;;
5827;SDS011;42583;50.240;8.444;2022-12-18T23:37:17;14.13;;;5.75;;
5827;SDS011;42583;50.240;8.444;2022-12-18T23:52:18;15.02;;;5.72;;
